Time;durP1;ratioP1;P1;durP2;ratioP2;P2;SDS_P1;SDS_P2;PMS_P1;PMS_P2;Temp;Humidity;BMP_temperature;BMP_pressure;BME280_temperature;BME280_humidity;BME280_pressure;Samples;Min_cycle;Max_cycle;Signal;HPM_P1;HPM_P2
2022/12/25 00:01:16;;;;;;;6.28;2.75;;;10.70;99.90;;;;;;4890923;29;20055;-82
2022/12/25 00:03:43;;;;;;;4.53;2.22;;;10.70;99.90;;;;;;4892803;29;20084;-82
2022/12/25 00:06:10;;;;;;;4.75;2.35;;;10.60;99.90;;;;;;4897403;29;20055;-82
2022/12/25 00:08:38;;;;;;;5.80;3.45;;;10.60;99.90;;;;;;4891156;29;20135;-82
2022/12/25 00:11:08;;;;;;;5.00;3.15;;;10.60;99.90;;;;;;4889727;29;20052;-82
2022/12/25 00:13:35;;;;;;;4.70;2.57;;;10.70;99.90;;;;;;4906810;29;20431;-82
2022/12/25 00:16:11;;;;;;;5.18;3.00;;;10.70;99.90;;;;;;4889340;29;20293;-82
2022/12/25 00:18:38;;;;;;;4.32;2.53;;;10.70;99.90;;;;;;4891177;29;20064;-82
2022/12/25 00:21:05;;;;;;;4.93;2.70;;;10.70;99.90;;;;;;4889624;29;20048;-83
2022/12/25 00:23:34;;;;;;;6.55;2.65;;;10.70;99.90;;;;;;4890177;29;20059;-82
2022/12/25 00:26:04;;;;;;;3.75;2.55;;;10.60;99.90;;;;;;4889447;29;20048;-83
2022/12/25 00:28:31;;;;;;;6.97;2.95;;;10.60;99.90;;;;;;4890321;29;20057;-82
2022/12/25 00:30:58;;;;;;;3.95;2.95;;;10.60;99.90;;;;;;4892175;29;20500;-81
2022/12/25 00:33:25;;;;;;;3.42;2.75;;;10.60;99.90;;;;;;4882354;29;20045;-83
2022/12/25 00:35:59;;;;;;;6.60;3.30;;;10.60;99.90;;;;;;4882268;29;20116;-82
2022/12/25 00:38:26;;;;;;;8.88;3.55;;;10.60;99.90;;;;;;4893766;29;20081;-83
2022/12/25 00:40:53;;;;;;;5.63;2.90;;;10.60;99.90;;;;;;4891693;29;20062;-82
2022/12/25 00:43:20;;;;;;;4.57;2.60;;;10.60;99.90;;;;;;4899588;29;20182;-83
2022/12/25 00:45:58;;;;;;;5.60;2.47;;;10.60;99.90;;;;;;4891505;29;20081;-82
2022/12/25 00:48:25;;;;;;;5.80;2.78;;;10.60;99.90;;;;;;4890132;29;20059;-82
2022/12/25 00:50:57;;;;;;;6.07;2.88;;;10.60;99.90;;;;;;4890741;29;20057;-83
2022/12/25 00:53:25;;;;;;;4.93;2.90;;;10.60;99.90;;;;;;4891955;29;20127;-83
2022/12/25 00:55:57;;;;;;;5.35;2.97;;;10.60;99.90;;;;;;4881043;29;20518;-83
2022/12/25 00:58:26;;;;;;;6.03;3.08;;;10.50;99.90;;;;;;4885204;29;20148;-83
2022/12/25 01:00:53;;;;;;;4.75;3.17;;;10.50;99.90;;;;;;4882438;29;20052;-83
2022/12/25 01:03:20;;;;;;;6.38;3.15;;;10.50;99.90;;;;;;4893240;29;20075;-83
2022/12/25 01:06:00;;;;;;;4.57;3.53;;;10.30;99.90;;;;;;4886996;29;20049;-82
2022/12/25 01:08:30;;;;;;;6.93;3.95;;;10.30;99.90;;;;;;4906861;29;20049;-81
2022/12/25 01:11:02;;;;;;;10.00;4.67;;;10.30;99.90;;;;;;4902390;29;20049;-82
2022/12/25 01:13:30;;;;;;;7.97;4.15;;;10.30;99.90;;;;;;4895031;29;20132;-82
2022/12/25 01:15:57;;;;;;;7.63;4.65;;;10.20;99.90;;;;;;4886723;29;20055;-83
2022/12/25 01:18:24;;;;;;;7.97;4.22;;;10.30;99.90;;;;;;4892124;29;20049;-83
2022/12/25 01:20:51;;;;;;;6.55;4.60;;;10.20;99.90;;;;;;4891414;29;20084;-83
2022/12/25 01:23:18;;;;;;;5.93;4.15;;;10.30;99.90;;;;;;4891568;29;20056;-83
2022/12/25 01:25:44;;;;;;;8.15;4.43;;;10.30;99.90;;;;;;4889808;29;20048;-82
2022/12/25 01:28:11;;;;;;;7.93;4.00;;;10.30;99.90;;;;;;4888754;29;20049;-83
2022/12/25 01:30:38;;;;;;;8.73;4.03;;;10.20;99.90;;;;;;4888982;29;20502;-82
2022/12/25 01:33:05;;;;;;;8.02;4.53;;;10.30;99.90;;;;;;4890589;29;20442;-83
2022/12/25 01:35:32;;;;;;;7.97;4.03;;;10.30;99.90;;;;;;4886164;29;20068;-82
2022/12/25 01:37:58;;;;;;;7.65;3.67;;;10.30;99.90;;;;;;4894332;29;20496;-82
2022/12/25 01:40:25;;;;;;;7.90;3.85;;;10.40;99.90;;;;;;4886435;29;20053;-82
2022/12/25 01:42:52;;;;;;;8.30;4.20;;;10.40;99.90;;;;;;4897837;29;20478;-82
2022/12/25 01:45:40;;;;;;;6.68;3.38;;;10.50;99.90;;;;;;4891161;29;20515;-83
2022/12/25 01:48:13;;;;;;;7.07;3.60;;;10.50;99.90;;;;;;4894775;29;20052;-82
2022/12/25 01:50:44;;;;;;;6.65;3.20;;;10.50;99.90;;;;;;4887822;29;20059;-81
2022/12/25 01:53:11;;;;;;;4.70;3.05;;;10.50;99.90;;;;;;4893183;29;20049;-83
2022/12/25 01:55:42;;;;;;;6.03;4.03;;;10.50;99.90;;;;;;4891364;29;20052;-82
2022/12/25 01:58:08;;;;;;;;;;;10.60;99.90;;;;;;4887579;29;20053;-82
2022/12/25 02:00:35;;;;;;;5.80;3.45;;;10.60;99.90;;;;;;4892623;29;19924;-83
2022/12/25 02:03:03;;;;;;;7.20;3.67;;;10.60;99.90;;;;;;4889048;29;20052;-82
2022/12/25 02:05:33;;;;;;;8.05;3.85;;;10.60;99.90;;;;;;4895662;29;20510;-83
2022/12/25 02:08:05;;;;;;;6.53;4.03;;;10.60;99.90;;;;;;4898499;29;20127;-82
2022/12/25 02:10:31;;;;;;;5.80;3.65;;;10.60;99.90;;;;;;4891376;29;20056;-83
2022/12/25 02:12:59;;;;;;;7.57;4.18;;;10.60;99.90;;;;;;4882610;29;20049;-83
2022/12/25 02:15:33;;;;;;;8.00;4.18;;;10.60;99.90;;;;;;4888496;29;20059;-82
2022/12/25 02:18:16;;;;;;;6.88;4.22;;;10.60;99.90;;;;;;4891221;29;20143;-83
2022/12/25 02:20:54;;;;;;;7.75;4.45;;;10.60;99.90;;;;;;4889663;29;20059;-83
2022/12/25 02:23:48;;;;;;;8.55;5.05;;;10.60;99.90;;;;;;4890619;29;20059;-84
2022/12/25 02:26:37;;;;;;;9.48;5.43;;;10.60;99.90;;;;;;4889530;29;20135;-84
2022/12/25 02:29:31;;;;;;;11.38;5.68;;;10.50;99.90;;;;;;4897214;29;20059;-83
2022/12/25 02:32:06;;;;;;;10.70;6.57;;;10.50;99.90;;;;;;4886716;29;20049;-84
2022/12/25 02:34:42;;;;;;;10.45;5.20;;;10.50;99.90;;;;;;4885240;29;20507;-83
2022/12/25 02:37:36;;;;;;;9.02;5.18;;;10.60;99.90;;;;;;4888972;29;20509;-83
2022/12/25 02:40:39;;;;;;;7.88;6.05;;;10.60;99.90;;;;;;4897031;29;20056;-84
2022/12/25 03:11:29;;;;;;;10.07;4.85;;;10.70;99.90;;;;;;4906195;29;20056;-83
2022/12/25 03:11:46;;;;;;;6.90;4.30;;;10.70;99.90;;;;;;4909330;29;20088;-82
2022/12/25 03:16:59;;;;;;;7.80;4.22;;;10.70;99.90;;;;;;4894541;29;20447;-82
2022/12/25 03:27:57;;;;;;;6.47;4.55;;;10.70;99.90;;;;;;4888965;29;20053;-82
2022/12/25 03:31:12;;;;;;;6.90;4.60;;;10.70;99.90;;;;;;4895132;29;20506;-82
2022/12/25 03:36:48;;;;;;;10.63;4.53;;;10.70;99.90;;;;;;4918212;29;20105;-84
2022/12/25 04:36:12;;;;;;;5.47;3.10;;;10.70;99.90;;;;;;4891558;29;20137;-82
2022/12/25 04:38:39;;;;;;;5.55;3.05;;;10.70;99.90;;;;;;4895796;29;20055;-82
2022/12/25 04:41:11;;;;;;;6.70;2.92;;;10.70;99.90;;;;;;4897357;29;20049;-82
2022/12/25 04:43:38;;;;;;;4.68;2.47;;;10.70;99.90;;;;;;4896457;29;20137;-83
2022/12/25 04:46:05;;;;;;;5.28;2.70;;;10.70;99.90;;;;;;4889225;29;20052;-82
2022/12/25 04:48:34;;;;;;;9.15;3.45;;;10.70;99.90;;;;;;4888780;29;20409;-84
2022/12/25 04:51:19;;;;;;;4.30;2.92;;;10.70;99.90;;;;;;4897825;29;20055;-83
2022/12/25 04:53:46;;;;;;;12.05;3.40;;;10.70;99.90;;;;;;4904338;29;20056;-83
2022/12/25 04:56:14;;;;;;;6.60;3.30;;;10.60;99.90;;;;;;4892584;29;20422;-83
2022/12/25 04:58:41;;;;;;;7.10;3.55;;;10.70;99.90;;;;;;4896161;29;20056;-82
2022/12/25 05:01:08;;;;;;;4.90;3.33;;;10.70;99.90;;;;;;4888408;29;20053;-83
2022/12/25 05:03:36;;;;;;;4.20;3.20;;;10.60;99.90;;;;;;4890074;29;20067;-83
2022/12/25 05:06:04;;;;;;;5.95;4.05;;;10.60;99.90;;;;;;4900013;29;20587;-82
2022/12/25 05:08:33;;;;;;;8.68;5.78;;;10.60;99.90;;;;;;4899970;29;20059;-83
2022/12/25 05:11:03;;;;;;;5.40;3.28;;;10.50;99.90;;;;;;4901210;29;20135;-83
2022/12/25 05:13:31;;;;;;;4.13;2.78;;;10.50;99.90;;;;;;4891079;29;20049;-81
2022/12/25 05:15:57;;;;;;;5.25;2.90;;;10.50;99.90;;;;;;4881509;29;20084;-82
2022/12/25 05:18:24;;;;;;;5.38;3.28;;;10.40;99.90;;;;;;4881495;29;20057;-82
2022/12/25 05:20:53;;;;;;;6.00;2.80;;;10.40;99.90;;;;;;4888450;29;20059;-82
2022/12/25 05:23:20;;;;;;;3.95;2.58;;;10.30;99.90;;;;;;4890374;29;20075;-83
2022/12/25 05:25:46;;;;;;;5.75;2.60;;;10.30;99.90;;;;;;4899419;29;20053;-82
2022/12/25 05:28:13;;;;;;;5.93;3.20;;;10.20;99.90;;;;;;4892958;29;20049;-82
2022/12/25 05:30:40;;;;;;;6.00;3.50;;;10.20;99.90;;;;;;4883983;29;20418;-82
2022/12/25 05:33:07;;;;;;;6.13;2.47;;;10.20;99.90;;;;;;4890969;29;20143;-82
2022/12/25 05:35:36;;;;;;;4.63;2.65;;;10.10;99.90;;;;;;4880129;29;20075;-82
2022/12/25 05:38:04;;;;;;;4.07;2.33;;;10.10;99.90;;;;;;4880158;29;20059;-83
2022/12/25 05:40:31;;;;;;;3.90;2.50;;;10.10;99.90;;;;;;4884432;29;20060;-82
2022/12/25 05:42:58;;;;;;;7.57;2.80;;;10.00;99.90;;;;;;4885698;29;20060;-83
2022/12/25 05:45:24;;;;;;;5.80;2.03;;;9.90;99.90;;;;;;4888236;29;20053;-82
2022/12/25 05:47:52;;;;;;;2.00;1.73;;;9.90;99.90;;;;;;4888230;29;20052;-81
2022/12/25 05:50:18;;;;;;;5.45;2.13;;;9.90;99.90;;;;;;4884596;29;20123;-82
2022/12/25 05:52:45;;;;;;;5.50;1.95;;;9.80;99.90;;;;;;4889341;29;20048;-81
2022/12/25 05:55:12;;;;;;;5.00;2.22;;;9.80;99.90;;;;;;4885831;29;20053;-82
2022/12/25 05:57:38;;;;;;;2.90;1.90;;;9.70;99.90;;;;;;4891267;29;20056;-82
2022/12/25 06:00:06;;;;;;;2.40;1.98;;;9.70;99.90;;;;;;4886371;29;20057;-82
2022/12/25 06:02:34;;;;;;;8.50;2.10;;;9.60;99.90;;;;;;4893933;29;20057;-82
2022/12/25 06:05:03;;;;;;;5.18;1.85;;;9.50;99.90;;;;;;4887481;29;20053;-81
2022/12/25 06:07:30;;;;;;;4.80;1.90;;;9.50;99.90;;;;;;4885254;29;20423;-82
2022/12/25 06:09:56;;;;;;;3.13;1.88;;;9.50;99.90;;;;;;4884732;29;20048;-81
2022/12/25 06:12:23;;;;;;;3.45;1.95;;;9.50;99.90;;;;;;4877915;29;20052;-81
2022/12/25 06:14:49;;;;;;;7.18;2.72;;;9.40;99.90;;;;;;4879159;29;20137;-82
2022/12/25 06:17:16;;;;;;;5.93;2.00;;;9.40;99.90;;;;;;4894838;29;20059;-81
2022/12/25 06:19:43;;;;;;;4.32;3.28;;;9.40;99.90;;;;;;4889236;29;20049;-81
2022/12/25 06:22:09;;;;;;;3.47;2.50;;;9.40;99.90;;;;;;4885656;29;20083;-82
2022/12/25 06:24:37;;;;;;;3.47;2.83;;;9.30;99.90;;;;;;4893799;29;20060;-82
2022/12/25 06:27:03;;;;;;;5.13;2.33;;;9.30;99.90;;;;;;4884416;29;20514;-81
2022/12/25 06:29:30;;;;;;;4.85;2.70;;;9.20;99.90;;;;;;4885352;29;20048;-82
2022/12/25 06:31:57;;;;;;;4.00;2.38;;;9.20;99.90;;;;;;4884781;29;20049;-82
2022/12/25 06:34:25;;;;;;;3.83;2.63;;;9.20;99.90;;;;;;4887114;29;20045;-83
2022/12/25 06:36:52;;;;;;;3.05;2.45;;;9.10;99.90;;;;;;4885757;29;20084;-83
2022/12/25 06:39:20;;;;;;;5.05;3.50;;;9.10;99.90;;;;;;4889403;29;20150;-83
2022/12/25 06:41:47;;;;;;;13.52;4.22;;;9.10;99.90;;;;;;4880228;29;20101;-82
2022/12/25 06:44:13;;;;;;;6.45;2.53;;;9.10;99.90;;;;;;4887020;29;20109;-82
2022/12/25 06:46:40;;;;;;;3.90;2.95;;;9.10;99.90;;;;;;4892409;29;20053;-82
2022/12/25 06:49:07;;;;;;;7.28;5.03;;;9.10;99.90;;;;;;4888602;29;20055;-82
2022/12/25 06:51:33;;;;;;;8.05;4.35;;;9.00;99.90;;;;;;4885638;29;20084;-83
2022/12/25 06:54:03;;;;;;;8.73;4.25;;;9.00;99.90;;;;;;4888335;29;20128;-82
2022/12/25 06:56:32;;;;;;;6.07;3.85;;;9.00;99.90;;;;;;4886440;29;20132;-82
2022/12/25 06:59:04;;;;;;;8.63;4.50;;;9.00;99.90;;;;;;4892081;29;20056;-82
2022/12/25 07:01:38;;;;;;;8.32;5.97;;;9.00;99.90;;;;;;4888237;29;20057;-82
2022/12/25 07:04:09;;;;;;;16.33;11.68;;;8.90;99.90;;;;;;4887704;29;20049;-82
2022/12/25 07:06:36;;;;;;;8.90;5.88;;;8.90;99.90;;;;;;4886470;29;20053;-82
2022/12/25 07:09:03;;;;;;;12.80;7.25;;;8.90;99.90;;;;;;4887371;29;20053;-82
2022/12/25 07:11:29;;;;;;;5.72;4.47;;;8.90;99.90;;;;;;4886308;29;20045;-82
2022/12/25 07:13:56;;;;;;;9.98;7.00;;;8.90;99.90;;;;;;4881460;29;20132;-83
2022/12/25 07:16:23;;;;;;;15.85;6.70;;;8.90;99.90;;;;;;4885922;29;20057;-83
2022/12/25 07:18:49;;;;;;;10.02;6.38;;;8.90;99.90;;;;;;4885391;29;20132;-82
2022/12/25 07:21:18;;;;;;;10.65;4.78;;;8.90;99.90;;;;;;4885365;29;20061;-82
2022/12/25 07:23:47;;;;;;;12.00;7.20;;;8.90;99.90;;;;;;4887536;29;20075;-81
2022/12/25 07:26:14;;;;;;;13.70;7.43;;;8.80;99.90;;;;;;4887888;29;20049;-83
2022/12/25 07:28:40;;;;;;;8.32;5.00;;;8.90;99.90;;;;;;4890099;29;20118;-82
2022/12/25 07:31:11;;;;;;;8.88;5.25;;;8.90;99.90;;;;;;4885663;29;20053;-82
2022/12/25 07:33:39;;;;;;;6.97;4.68;;;8.90;99.90;;;;;;4884360;29;20166;-82
2022/12/25 07:36:06;;;;;;;7.53;4.07;;;8.80;99.90;;;;;;4891192;29;20056;-83
2022/12/25 07:38:38;;;;;;;8.45;4.22;;;8.80;99.90;;;;;;4891404;29;20049;-83
2022/12/25 07:41:08;;;;;;;4.90;3.50;;;8.90;99.90;;;;;;4887174;29;20056;-82
2022/12/25 07:43:36;;;;;;;10.35;4.38;;;8.80;99.90;;;;;;4889707;29;20579;-83
2022/12/25 07:46:03;;;;;;;5.22;4.00;;;8.80;99.90;;;;;;4894350;29;20056;-82
2022/12/25 07:48:30;;;;;;;6.40;3.88;;;8.80;99.90;;;;;;4890805;29;20139;-82
2022/12/25 07:51:11;;;;;;;6.40;3.90;;;8.80;99.90;;;;;;4889469;29;20136;-82
2022/12/25 07:53:38;;;;;;;;;;;8.80;99.90;;;;;;4891854;29;20059;-83
2022/12/25 07:56:16;;;;;;;9.32;4.45;;;8.80;99.90;;;;;;4896059;29;19980;-82
2022/12/25 07:58:43;;;;;;;8.68;5.07;;;8.80;99.90;;;;;;4894878;29;20063;-82
2022/12/25 08:01:16;;;;;;;7.28;4.47;;;8.80;99.90;;;;;;4905041;29;20053;-83
2022/12/25 08:03:49;;;;;;;6.40;4.93;;;8.80;99.90;;;;;;4886290;29;20076;-83
2022/12/25 08:06:15;;;;;;;8.75;5.55;;;8.70;99.90;;;;;;4895127;29;20088;-83
2022/12/25 08:08:42;;;;;;;9.52;5.68;;;8.70;99.90;;;;;;4881247;29;20052;-83
2022/12/25 08:11:09;;;;;;;8.40;5.40;;;8.70;99.90;;;;;;4881183;29;20052;-83
2022/12/25 08:13:36;;;;;;;13.88;5.82;;;8.70;99.90;;;;;;4882438;29;20053;-81
2022/12/25 08:16:07;;;;;;;15.30;6.53;;;8.70;99.90;;;;;;4891074;29;20060;-83
2022/12/25 08:18:35;;;;;;;9.00;5.53;;;8.70;99.90;;;;;;4888529;29;20140;-82
2022/12/25 08:21:08;;;;;;;8.48;3.72;;;8.70;99.90;;;;;;4889956;29;20060;-82
2022/12/25 08:23:37;;;;;;;7.85;5.18;;;8.80;99.90;;;;;;4881701;29;20072;-82
2022/12/25 08:26:05;;;;;;;6.53;4.70;;;8.80;99.90;;;;;;4883069;29;20045;-83
2022/12/25 08:28:33;;;;;;;9.30;4.60;;;8.80;99.90;;;;;;4888851;29;20053;-85
2022/12/25 08:31:21;;;;;;;10.07;5.93;;;8.90;99.90;;;;;;4894430;29;20053;-82
2022/12/25 08:33:51;;;;;;;10.35;6.47;;;8.90;99.90;;;;;;4885208;29;20128;-83
2022/12/25 08:36:18;;;;;;;7.57;5.70;;;8.90;99.90;;;;;;4892296;29;20055;-82
2022/12/25 08:38:45;;;;;;;11.20;6.07;;;8.90;99.90;;;;;;4886599;29;20140;-82
2022/12/25 08:41:13;;;;;;;8.65;5.10;;;8.90;99.90;;;;;;4889960;29;20422;-83
2022/12/25 08:43:39;;;;;;;13.32;7.78;;;9.00;99.90;;;;;;4891603;29;20078;-82
2022/12/25 08:46:07;;;;;;;9.07;5.50;;;9.00;99.90;;;;;;4887026;29;20053;-82
2022/12/25 08:48:34;;;;;;;9.60;5.15;;;9.10;99.90;;;;;;4891214;29;20044;-83
2022/12/25 08:51:03;;;;;;;17.02;8.75;;;9.10;99.90;;;;;;4881485;29;20049;-83
2022/12/25 08:53:30;;;;;;;14.60;7.53;;;9.20;99.90;;;;;;4891100;29;20057;-82
2022/12/25 08:56:02;;;;;;;12.35;7.47;;;9.30;99.90;;;;;;4887835;29;20048;-83
2022/12/25 08:58:29;;;;;;;8.48;5.43;;;9.30;99.90;;;;;;4888378;29;20057;-83
2022/12/25 09:00:56;;;;;;;8.68;5.45;;;9.40;99.90;;;;;;4891149;29;20063;-83
2022/12/25 09:03:23;;;;;;;11.50;6.10;;;9.40;99.90;;;;;;4881177;29;20524;-82
2022/12/25 09:05:54;;;;;;;13.27;6.93;;;9.50;99.90;;;;;;4895054;29;20049;-82
2022/12/25 09:08:21;;;;;;;14.18;8.75;;;9.50;99.90;;;;;;4903478;29;20052;-83
2022/12/25 09:10:48;;;;;;;13.35;8.30;;;9.60;99.90;;;;;;4895076;29;20060;-83
2022/12/25 09:13:14;;;;;;;9.85;6.03;;;9.60;99.90;;;;;;4890346;29;20055;-83
2022/12/25 09:15:41;;;;;;;11.05;5.90;;;9.70;99.90;;;;;;4887345;29;20048;-84
2022/12/25 09:18:08;;;;;;;8.35;5.18;;;9.70;99.90;;;;;;4891314;29;20052;-84
2022/12/25 09:20:34;;;;;;;11.43;7.10;;;9.80;99.90;;;;;;4886592;29;20057;-82
2022/12/25 09:23:01;;;;;;;13.32;8.50;;;9.80;99.90;;;;;;4891650;29;20061;-84
2022/12/25 09:25:28;;;;;;;17.83;10.93;;;9.80;99.90;;;;;;4889297;29;20057;-83
2022/12/25 09:27:55;;;;;;;15.15;11.00;;;9.90;99.90;;;;;;4906979;29;20052;-83
2022/12/25 09:30:22;;;;;;;16.35;10.05;;;9.90;99.90;;;;;;4887190;29;20128;-84
2022/12/25 09:32:51;;;;;;;13.40;9.07;;;9.90;99.90;;;;;;4893091;29;20419;-84
2022/12/25 09:35:18;;;;;;;14.90;9.75;;;9.90;99.90;;;;;;4886317;29;20049;-84
2022/12/25 09:37:44;;;;;;;15.25;7.93;;;10.00;99.90;;;;;;4887213;29;20057;-84
2022/12/25 09:40:18;;;;;;;14.05;7.18;;;10.00;99.90;;;;;;4890046;29;20059;-84
2022/12/25 09:42:47;;;;;;;13.07;7.47;;;10.10;99.90;;;;;;4892689;29;20064;-85
2022/12/25 09:45:23;;;;;;;11.02;6.25;;;10.10;99.90;;;;;;4899859;29;20040;-85
2022/12/25 09:47:53;;;;;;;10.65;7.63;;;10.10;99.90;;;;;;4899445;29;20052;-83
2022/12/25 09:50:32;;;;;;;10.18;6.85;;;10.20;99.90;;;;;;4893955;29;20060;-82
2022/12/25 09:53:05;;;;;;;12.63;6.95;;;10.20;99.90;;;;;;4894745;29;20079;-84
2022/12/25 09:55:37;;;;;;;10.15;6.18;;;10.20;99.90;;;;;;4888372;29;20055;-83
2022/12/25 09:58:11;;;;;;;10.18;5.90;;;10.30;99.90;;;;;;4890158;29;20063;-83
2022/12/25 10:00:42;;;;;;;9.65;6.88;;;10.30;99.90;;;;;;4893062;29;20135;-83
2022/12/25 10:03:37;;;;;;;8.68;5.13;;;10.40;99.90;;;;;;4892870;29;20052;-84
2022/12/25 10:06:11;;;;;;;9.52;6.00;;;10.50;99.90;;;;;;4890411;29;20100;-84
2022/12/25 10:09:04;;;;;;;12.07;6.90;;;10.50;99.90;;;;;;4908235;29;20052;-83
2022/12/25 10:11:45;;;;;;;6.53;4.43;;;10.60;99.90;;;;;;4901189;29;20059;-83
2022/12/25 10:14:25;;;;;;;6.38;4.13;;;10.70;99.90;;;;;;4898917;29;20413;-84
2022/12/25 10:17:24;;;;;;;12.63;7.57;;;10.80;99.90;;;;;;4894878;29;20140;-85
2022/12/25 10:20:12;;;;;;;7.80;5.40;;;10.90;99.90;;;;;;4892925;29;20695;-83
2022/12/25 10:22:46;;;;;;;7.93;5.00;;;11.10;99.90;;;;;;4902401;29;20060;-83
2022/12/25 10:25:22;;;;;;;8.65;5.30;;;11.10;99.90;;;;;;4903282;29;20447;-82
2022/12/25 10:27:53;;;;;;;8.18;4.50;;;11.20;99.90;;;;;;4895800;29;20550;-86
2022/12/25 10:30:22;;;;;;;6.10;4.80;;;11.30;99.90;;;;;;4904837;29;20048;-85
2022/12/25 10:32:50;;;;;;;5.63;4.63;;;11.30;99.90;;;;;;4891898;29;20061;-82
2022/12/25 10:35:23;;;;;;;8.02;4.88;;;11.30;99.90;;;;;;4896006;29;20045;-82
2022/12/25 10:38:00;;;;;;;8.77;5.20;;;11.40;99.90;;;;;;4889659;29;20076;-82
2022/12/25 10:40:42;;;;;;;7.68;5.38;;;11.40;99.90;;;;;;4894086;29;20059;-83
2022/12/25 10:43:14;;;;;;;6.53;5.20;;;11.40;99.90;;;;;;4888957;29;20056;-83
2022/12/25 10:45:48;;;;;;;5.82;4.43;;;11.40;99.90;;;;;;4898252;29;20045;-83
2022/12/25 10:48:23;;;;;;;9.38;5.22;;;11.50;99.90;;;;;;4888578;29;20503;-81
2022/12/25 10:50:51;;;;;;;6.55;4.70;;;11.40;99.90;;;;;;4893724;29;20134;-82
2022/12/25 10:53:28;;;;;;;8.55;5.47;;;11.50;99.90;;;;;;4894603;29;20154;-82
2022/12/25 10:56:02;;;;;;;7.03;5.18;;;11.50;99.90;;;;;;4897924;29;20052;-81
2022/12/25 10:58:30;;;;;;;6.68;4.97;;;11.50;99.90;;;;;;4896860;29;20132;-82
2022/12/25 11:00:59;;;;;;;11.68;5.80;;;11.50;99.90;;;;;;4893565;29;20497;-82
2022/12/25 11:03:32;;;;;;;8.95;5.55;;;11.60;99.90;;;;;;4893311;29;20512;-83
2022/12/25 11:06:01;;;;;;;8.40;6.22;;;11.60;99.90;;;;;;4893675;29;20089;-83
2022/12/25 11:08:30;;;;;;;8.50;5.72;;;11.50;99.90;;;;;;4892303;29;20049;-82
2022/12/25 11:11:07;;;;;;;10.55;4.97;;;11.50;99.90;;;;;;4891249;29;20526;-82
2022/12/25 11:13:39;;;;;;;9.48;5.35;;;11.50;99.90;;;;;;4889712;29;20132;-83
2022/12/25 11:16:23;;;;;;;7.78;5.88;;;11.50;99.90;;;;;;4892902;29;20071;-82
2022/12/25 11:18:53;;;;;;;8.45;5.25;;;11.40;99.90;;;;;;4888297;29;20044;-84
2022/12/25 11:21:29;;;;;;;10.30;6.05;;;11.40;99.90;;;;;;4891662;29;20132;-85
2022/12/25 11:24:04;;;;;;;8.95;5.93;;;11.40;99.90;;;;;;4893863;29;20052;-82
2022/12/25 11:26:44;;;;;;;7.88;5.07;;;11.40;99.90;;;;;;4891213;29;20061;-84
2022/12/25 11:29:28;;;;;;;7.18;5.70;;;11.40;99.90;;;;;;4896166;29;20044;-83
2022/12/25 11:31:59;;;;;;;7.35;5.75;;;11.40;99.90;;;;;;4906799;29;20107;-84
2022/12/25 11:34:33;;;;;;;8.05;5.03;;;11.40;99.90;;;;;;4910838;29;20056;-83
2022/12/25 11:37:02;;;;;;;6.90;5.38;;;11.40;99.90;;;;;;4895623;29;20045;-82
2022/12/25 11:39:38;;;;;;;12.32;5.40;;;11.40;99.90;;;;;;4894620;29;20072;-83
2022/12/25 11:42:23;;;;;;;9.00;5.75;;;11.40;99.90;;;;;;4896161;29;20127;-83
2022/12/25 11:45:14;;;;;;;11.45;6.22;;;11.40;99.90;;;;;;4895686;29;20048;-83
2022/12/25 11:47:43;;;;;;;8.05;5.95;;;11.40;99.90;;;;;;4892380;29;20061;-82
2022/12/25 11:50:19;;;;;;;10.55;6.15;;;11.40;99.90;;;;;;4895654;29;20049;-81
2022/12/25 11:52:47;;;;;;;11.43;6.68;;;11.40;99.90;;;;;;4892379;29;20076;-82
2022/12/25 11:55:31;;;;;;;10.50;7.55;;;11.50;99.90;;;;;;4890865;29;20403;-82
2022/12/25 11:58:01;;;;;;;8.40;5.53;;;11.50;99.90;;;;;;4890867;29;20056;-82
2022/12/25 12:00:29;;;;;;;;;;;11.50;99.90;;;;;;4893582;29;20049;-83
2022/12/25 12:03:12;;;;;;;8.65;5.60;;;11.60;99.90;;;;;;4890440;29;19934;-82
2022/12/25 12:05:46;;;;;;;5.15;4.25;;;11.70;99.90;;;;;;4894702;29;20136;-81
2022/12/25 12:08:14;;;;;;;7.45;5.93;;;11.70;99.90;;;;;;4891972;29;20045;-83
2022/12/25 12:10:44;;;;;;;12.05;7.22;;;11.70;99.90;;;;;;4889549;29;20081;-82
2022/12/25 12:13:22;;;;;;;24.13;12.13;;;11.70;99.90;;;;;;4893976;29;20048;-82
2022/12/25 12:15:49;;;;;;;13.77;7.22;;;11.70;99.90;;;;;;4895253;29;20049;-82
2022/12/25 12:18:26;;;;;;;20.40;11.23;;;11.70;99.90;;;;;;4891607;29;20080;-83
2022/12/25 12:21:22;;;;;;;8.98;6.05;;;11.70;99.90;;;;;;4892444;29;20060;-81
2022/12/25 12:24:00;;;;;;;7.40;5.00;;;11.80;99.90;;;;;;4896053;29;20143;-81
2022/12/25 12:26:30;;;;;;;6.07;4.65;;;11.80;99.90;;;;;;4895310;29;20061;-83
2022/12/25 12:28:59;;;;;;;5.85;4.30;;;11.90;99.90;;;;;;4893211;29;20064;-82
2022/12/25 12:31:45;;;;;;;6.97;4.60;;;11.90;99.90;;;;;;4892042;29;20091;-82
2022/12/25 12:34:28;;;;;;;7.78;5.18;;;11.90;99.90;;;;;;4894516;29;20124;-82
2022/12/25 12:37:10;;;;;;;6.88;4.40;;;11.90;99.90;;;;;;4893870;29;20045;-83
2022/12/25 12:39:39;;;;;;;7.28;4.43;;;11.90;99.90;;;;;;4903316;29;20072;-82
2022/12/25 12:42:15;;;;;;;7.40;4.97;;;11.90;99.90;;;;;;4893368;29;20049;-82
2022/12/25 12:44:44;;;;;;;7.70;4.93;;;11.90;99.90;;;;;;4892559;29;20235;-81
2022/12/25 12:47:36;;;;;;;6.85;4.80;;;11.90;99.90;;;;;;4896762;29;20059;-82
2022/12/25 12:50:04;;;;;;;7.00;4.32;;;11.90;99.90;;;;;;4897161;29;20071;-82
2022/12/25 12:52:37;;;;;;;6.65;4.13;;;12.00;99.90;;;;;;4891680;29;20049;-81
2022/12/25 12:55:12;;;;;;;7.20;4.15;;;12.00;99.90;;;;;;4891195;29;20136;-83
2022/12/25 12:57:40;;;;;;;7.47;4.85;;;12.10;99.90;;;;;;4892423;29;20144;-83
2022/12/25 13:00:15;;;;;;;9.63;3.70;;;12.20;99.90;;;;;;4895384;29;20052;-82
2022/12/25 13:03:01;;;;;;;6.18;3.22;;;12.20;99.90;;;;;;4894791;29;20509;-82
2022/12/25 13:05:44;;;;;;;5.68;4.10;;;12.20;99.90;;;;;;4894723;29;20507;-82
2022/12/25 13:08:42;;;;;;;8.23;4.97;;;12.30;99.90;;;;;;4892555;29;20569;-82
2022/12/25 13:11:25;;;;;;;5.45;3.33;;;12.30;99.90;;;;;;4890007;29;20057;-81
2022/12/25 13:13:55;;;;;;;4.20;2.50;;;12.30;99.90;;;;;;4892590;29;20049;-83
2022/12/25 13:16:25;;;;;;;3.13;2.83;;;12.40;99.90;;;;;;4892201;29;20056;-82
2022/12/25 13:18:54;;;;;;;3.58;2.72;;;12.50;99.90;;;;;;4890835;29;20091;-82
2022/12/25 13:21:28;;;;;;;4.22;2.50;;;12.60;99.90;;;;;;4890210;29;20063;-82
2022/12/25 13:24:07;;;;;;;4.40;2.60;;;12.60;99.90;;;;;;4893142;29;20049;-83
2022/12/25 13:26:35;;;;;;;7.03;2.67;;;12.70;99.90;;;;;;4892901;29;20060;-81
2022/12/25 13:29:02;;;;;;;3.88;2.40;;;12.70;99.90;;;;;;4893486;29;20055;-83
2022/12/25 13:31:39;;;;;;;3.13;2.28;;;12.80;99.90;;;;;;4894701;29;20108;-84
2022/12/25 13:34:36;;;;;;;5.28;3.10;;;12.80;99.90;;;;;;4907129;29;20078;-83
2022/12/25 13:37:08;;;;;;;2.85;2.10;;;12.80;99.90;;;;;;4892619;29;20051;-84
2022/12/25 13:39:38;;;;;;;4.43;2.13;;;12.90;99.90;;;;;;4889303;29;20044;-85
2022/12/25 13:42:08;;;;;;;2.97;1.90;;;12.90;99.90;;;;;;4892634;29;20048;-84
2022/12/25 13:44:44;;;;;;;2.75;1.80;;;12.90;99.90;;;;;;4896821;29;20135;-85
2022/12/25 13:47:25;;;;;;;4.07;2.15;;;13.00;99.90;;;;;;4893870;29;20427;-83
2022/12/25 13:49:54;;;;;;;4.40;2.15;;;13.00;99.90;;;;;;4886362;29;20053;-85
2022/12/25 13:52:41;;;;;;;2.85;2.50;;;13.00;99.90;;;;;;4896108;29;20119;-84
2022/12/25 13:55:17;;;;;;;3.03;2.60;;;13.00;99.90;;;;;;4887923;29;20063;-83
2022/12/25 13:58:05;;;;;;;3.67;1.75;;;13.00;99.90;;;;;;4895996;29;20128;-83
2022/12/25 14:00:47;;;;;;;3.17;2.25;;;13.10;99.90;;;;;;4894204;29;20136;-84
2022/12/25 14:03:19;;;;;;;3.17;2.50;;;13.00;99.90;;;;;;4889258;29;20064;-82
2022/12/25 14:05:55;;;;;;;4.53;2.63;;;13.10;99.90;;;;;;4891841;29;20053;-82
2022/12/25 14:08:26;;;;;;;3.47;2.40;;;13.10;99.90;;;;;;4890062;29;20092;-83
2022/12/25 14:10:54;;;;;;;4.38;3.20;;;13.00;99.90;;;;;;4887592;29;20136;-84
2022/12/25 14:13:24;;;;;;;3.30;2.38;;;13.00;99.90;;;;;;4888744;29;20113;-84
2022/12/25 14:15:55;;;;;;;6.15;3.58;;;13.00;99.90;;;;;;4885693;29;20068;-84
2022/12/25 14:18:22;;;;;;;;;;;13.00;99.90;;;;;;4891428;29;20068;-82
2022/12/25 14:21:09;;;;;;;2.65;2.00;;;13.00;99.90;;;;;;4885635;29;19924;-83
2022/12/25 14:23:44;;;;;;;1.70;1.10;;;13.00;99.90;;;;;;4889492;29;20061;-84
2022/12/25 14:26:31;;;;;;;1.20;1.00;;;13.00;99.90;;;;;;4892916;29;20068;-83
2022/12/25 14:29:09;;;;;;;1.83;1.20;;;13.00;99.90;;;;;;4888430;29;20467;-83
2022/12/25 14:31:44;;;;;;;5.05;1.50;;;13.10;99.90;;;;;;4894459;29;20048;-83
2022/12/25 14:34:17;;;;;;;1.63;1.15;;;13.10;99.90;;;;;;4893749;29;20055;-83
2022/12/25 14:36:44;;;;;;;2.47;1.17;;;13.10;99.90;;;;;;4894871;29;20048;-82
2022/12/25 14:39:29;;;;;;;3.15;2.15;;;13.10;99.90;;;;;;4895183;29;20414;-82
2022/12/25 14:41:56;;;;;;;2.28;1.50;;;13.00;99.90;;;;;;4888748;29;20052;-83
2022/12/25 14:44:39;;;;;;;2.75;1.40;;;13.00;99.90;;;;;;4892263;29;20049;-82
2022/12/25 14:47:09;;;;;;;3.10;1.92;;;13.00;99.90;;;;;;4892064;29;20387;-81
2022/12/25 14:49:37;;;;;;;1.85;1.42;;;12.90;99.90;;;;;;4886782;29;20056;-82